Time;durP1;ratioP1;P1;durP2;ratioP2;P2;SDS_P1;SDS_P2;PMS_P1;PMS_P2;Temp;Humidity;BMP_temperature;BMP_pressure;BME280_temperature;BME280_humidity;BME280_pressure;Samples;Min_cycle;Max_cycle;Signal;HPM_P1;HPM_P2
2021/12/03 00:00:45;;;;;;;23.38;8.55;;;;;;;7.48;100.00;99394.76;1680788;84;21386;-83
2021/12/03 00:03:51;;;;;;;25.12;7.67;;;;;;;7.49;100.00;99393.76;1662816;85;21345;-84
2021/12/03 00:06:56;;;;;;;18.37;7.80;;;;;;;7.52;100.00;99394.74;1682141;85;21330;-84
2021/12/03 00:10:02;;;;;;;17.15;7.25;;;;;;;7.53;100.00;99396.42;1663107;85;21325;-85
2021/12/03 00:13:08;;;;;;;22.30;7.90;;;;;;;7.53;100.00;99390.98;1681388;85;21297;-84
2021/12/03 00:16:13;;;;;;;23.00;8.05;;;;;;;7.51;100.00;99384.89;1663121;86;21305;-84
2021/12/03 00:19:18;;;;;;;16.97;7.53;;;;;;;7.50;100.00;99384.56;1681659;84;21334;-85
2021/12/03 00:22:24;;;;;;;26.07;7.95;;;;;;;7.49;100.00;99387.80;1663014;86;21285;-81
2021/12/03 00:25:31;;;;;;;21.10;7.75;;;;;;;7.47;100.00;99385.75;1680978;84;21327;-79
2021/12/03 00:28:38;;;;;;;23.32;8.65;;;;;;;7.41;100.00;99380.52;1661769;85;21388;-85
2021/12/03 00:31:43;;;;;;;26.45;8.48;;;;;;;7.37;100.00;99382.41;1680751;85;21326;-84
2021/12/03 00:34:49;;;;;;;20.35;8.13;;;;;;;7.32;100.00;99374.78;1662578;85;21910;-85
2021/12/03 00:37:55;;;;;;;22.50;8.03;;;;;;;7.32;100.00;99381.59;1669487;86;21755;-85
2021/12/03 00:41:01;;;;;;;21.48;7.83;;;;;;;7.31;100.00;99375.81;1637294;87;21862;-85
2021/12/03 00:44:06;;;;;;;20.10;8.25;;;;;;;7.29;100.00;99372.44;1669264;84;21310;-85
2021/12/03 00:47:11;;;;;;;18.23;7.62;;;;;;;7.27;100.00;99377.20;1637198;87;21297;-82
2021/12/03 00:50:18;;;;;;;23.55;8.48;;;;;;;7.28;100.00;99375.31;1669703;84;21315;-80
2021/12/03 00:53:23;;;;;;;21.02;7.50;;;;;;;7.27;100.00;99375.83;1637244;86;21805;-85
2021/12/03 00:56:28;;;;;;;16.27;6.40;;;;;;;7.32;100.00;99376.66;1669621;86;21323;-86
2021/12/03 00:59:34;;;;;;;20.37;7.72;;;;;;;7.34;100.00;99374.11;1636614;86;21807;-80
2021/12/03 01:02:39;;;;;;;17.65;6.70;;;;;;;7.34;100.00;99371.88;1669512;86;21386;-85
2021/12/03 01:05:44;;;;;;;18.85;7.08;;;;;;;7.34;100.00;99366.44;1636166;86;21877;-80
2021/12/03 01:08:50;;;;;;;30.62;8.35;;;;;;;7.33;100.00;99371.55;1669473;84;21784;-85
2021/12/03 01:11:57;;;;;;;14.25;7.15;;;;;;;7.31;100.00;99367.66;1637065;87;21916;-85
2021/12/03 01:15:05;;;;;;;20.48;7.47;;;;;;;7.30;100.00;99371.41;1669820;84;21208;-83
2021/12/03 01:18:12;;;;;;;28.27;7.60;;;;;;;7.30;100.00;99375.48;1637265;87;21310;-84
2021/12/03 01:21:18;;;;;;;23.00;7.75;;;;;;;7.30;100.00;99380.93;1669652;86;21219;-79
2021/12/03 01:24:24;;;;;;;29.87;7.47;;;;;;;7.29;100.00;99368.36;1636641;86;21886;-79
2021/12/03 01:27:29;;;;;;;19.17;6.70;;;;;;;7.28;100.00;99373.44;1669574;86;21322;-84
2021/12/03 01:30:35;;;;;;;15.70;5.78;;;;;;;7.29;100.00;99369.72;1637215;86;21230;-85
2021/12/03 01:33:40;;;;;;;20.50;7.12;;;;;;;7.32;100.00;99361.70;1669223;84;21303;-78
2021/12/03 01:36:45;;;;;;;19.55;5.95;;;;;;;7.30;100.00;99356.45;1639007;86;21791;-85
2021/12/03 01:39:50;;;;;;;16.32;5.90;;;;;;;7.33;100.00;99361.52;1666524;85;21385;-80
2021/12/03 01:42:56;;;;;;;23.62;6.12;;;;;;;7.32;100.00;99363.91;1667112;86;21886;-79
2021/12/03 01:46:04;;;;;;;18.80;5.53;;;;;;;7.33;100.00;99360.66;1672508;86;21289;-85
2021/12/03 01:49:10;;;;;;;17.98;5.87;;;;;;;7.33;100.00;99364.23;1703002;83;21364;-84
2021/12/03 01:52:17;;;;;;;21.48;7.08;;;;;;;7.34;100.00;99361.88;1702396;84;21349;-79
2021/12/03 01:55:22;;;;;;;28.50;6.95;;;;;;;7.35;100.00;99364.08;1702318;83;21364;-85
2021/12/03 01:58:28;;;;;;;15.68;6.55;;;;;;;7.34;100.00;99372.75;1703429;83;21341;-80
2021/12/03 02:01:34;;;;;;;16.00;5.87;;;;;;;7.34;100.00;99372.75;1703271;84;21342;-79
2021/12/03 02:17:39;;;;;;;18.98;7.05;;;;;;;7.35;100.00;99390.77;1857594;76;28076;-79
2021/12/03 02:20:56;;;;;;;18.20;5.87;;;;;;;7.28;100.00;99397.92;1757880;81;21883;-84
2021/12/03 02:24:02;;;;;;;17.52;6.78;;;;;;;7.27;100.00;99396.75;1751971;82;21306;-80
2021/12/03 02:27:07;;;;;;;19.95;6.45;;;;;;;7.25;100.00;99402.89;1758618;81;21796;-86
2021/12/03 02:30:13;;;;;;;23.40;5.67;;;;;;;7.27;100.00;99402.19;1727018;83;21334;-84
2021/12/03 02:33:19;;;;;;;20.02;6.17;;;;;;;7.31;100.00;99403.02;1727981;83;21275;-80
2021/12/03 02:36:25;;;;;;;17.65;5.97;;;;;;;7.32;100.00;99399.27;1727500;83;21409;-82
2021/12/03 02:39:30;;;;;;;20.05;5.33;;;;;;;7.30;100.00;99389.61;1727523;83;21330;-85
2021/12/03 02:42:36;;;;;;;13.62;5.12;;;;;;;7.28;100.00;99397.92;1752211;82;22191;-79
2021/12/03 02:45:41;;;;;;;15.35;5.62;;;;;;;7.25;100.00;99390.14;1758290;81;21899;-85
2021/12/03 02:48:41;;;;;;;15.80;5.05;;;;;;;7.22;100.00;99396.44;1750816;82;21335;-86
2021/12/03 02:51:33;;;;;;;17.57;5.60;;;;;;;7.20;100.00;99396.63;1760036;81;21684;-80
2021/12/03 02:54:37;;;;;;;14.68;5.50;;;;;;;7.18;100.00;99398.66;1728229;83;21315;-85
2021/12/03 02:57:43;;;;;;;15.30;5.20;;;;;;;7.15;100.00;99397.16;1728114;83;21304;-80
2021/12/03 03:00:49;;;;;;;14.70;5.03;;;;;;;7.14;100.00;99391.36;1728092;83;21291;-80
2021/12/03 03:03:54;;;;;;;16.87;5.10;;;;;;;7.15;100.00;99399.00;1752324;82;21212;-80
2021/12/03 03:07:01;;;;;;;17.87;5.25;;;;;;;7.12;100.00;99392.57;1759845;81;21291;-81
2021/12/03 03:10:09;;;;;;;15.43;5.20;;;;;;;7.11;100.00;99401.76;1728055;83;21307;-85
2021/12/03 03:13:13;;;;;;;14.98;5.67;;;;;;;7.12;100.00;99403.45;1752480;82;21837;-81
2021/12/03 03:16:19;;;;;;;18.35;5.55;;;;;;;7.11;100.00;99395.80;1759325;81;21777;-85
2021/12/03 03:19:27;;;;;;;16.27;4.58;;;;;;;7.13;100.00;99391.54;1722008;82;21770;-84
2021/12/03 03:22:32;;;;;;;21.85;5.42;;;;;;;7.16;100.00;99393.92;1789149;80;21152;-80
2021/12/03 03:25:38;;;;;;;13.75;5.37;;;;;;;7.15;100.00;99401.72;1789178;80;21223;-85
2021/12/03 03:28:44;;;;;;;13.55;5.15;;;;;;;7.16;100.00;99402.08;1788484;80;21823;-85
2021/12/03 03:31:50;;;;;;;14.25;4.53;;;;;;;7.18;100.00;99416.33;1788126;80;21303;-85
2021/12/03 03:34:57;;;;;;;11.20;5.17;;;;;;;7.17;100.00;99413.28;1786771;80;21784;-80
2021/12/03 03:38:02;;;;;;;15.85;5.37;;;;;;;7.17;100.00;99409.20;1787317;80;21287;-80
2021/12/03 03:41:08;;;;;;;9.98;3.83;;;;;;;7.18;100.00;99417.69;1788157;80;21302;-85
2021/12/03 03:44:15;;;;;;;11.38;3.90;;;;;;;7.17;100.00;99420.08;1786860;80;21827;-85
2021/12/03 03:47:20;;;;;;;17.92;5.33;;;;;;;7.16;100.00;99415.16;1787870;80;21196;-79
2021/12/03 03:50:26;;;;;;;12.63;4.50;;;;;;;7.16;100.00;99418.39;1788444;80;21192;-80
2021/12/03 03:53:31;;;;;;;13.05;4.85;;;;;;;7.16;100.00;99426.55;1788523;80;21268;-85
2021/12/03 03:56:37;;;;;;;11.78;4.17;;;;;;;7.13;100.00;99424.17;1788460;80;21152;-85
2021/12/03 03:59:43;;;;;;;14.65;4.25;;;;;;;7.11;100.00;99420.80;1788517;80;21208;-80
2021/12/03 04:02:48;;;;;;;11.57;3.92;;;;;;;7.09;100.00;99421.47;1787336;80;21685;-80
2021/12/03 04:05:53;;;;;;;12.58;3.75;;;;;;;7.05;100.00;99426.41;1796107;79;21125;-85
2021/12/03 04:08:58;;;;;;;9.98;3.45;;;;;;;7.01;100.00;99417.41;1798743;79;21306;-85
2021/12/03 04:12:04;;;;;;;10.30;3.35;;;;;;;6.98;100.00;99425.94;1814401;79;21268;-80
2021/12/03 04:15:09;;;;;;;9.43;3.42;;;;;;;6.97;100.00;99435.97;1814384;79;21303;-85
2021/12/03 04:18:14;;;;;;;11.63;3.65;;;;;;;6.97;100.00;99431.89;1806050;79;21283;-85
2021/12/03 06:42:06;;;;;;;11.05;4.97;;;;;;;6.77;100.00;99452.30;1766002;79;22016;-82
2021/12/03 06:45:12;;;;;;;14.68;3.35;;;;;;;6.71;100.00;99463.36;1732071;80;21300;-83
2021/12/03 06:48:17;;;;;;;11.40;3.50;;;;;;;6.72;100.00;99453.33;1713663;82;21313;-81
2021/12/03 06:51:23;;;;;;;9.90;3.22;;;;;;;6.77;100.00;99463.17;1710951;82;21236;-81
2021/12/03 06:54:31;;;;;;;9.88;3.20;;;;;;;6.81;100.00;99469.97;1711381;82;21652;-82
2021/12/03 06:57:35;;;;;;;8.38;3.27;;;;;;;6.87;100.00;99471.50;1712753;81;22220;-82
2021/12/03 07:00:40;;;;;;;9.93;3.60;;;;;;;7.03;100.00;99467.05;1713001;81;21555;-82
2021/12/03 07:03:47;;;;;;;7.75;2.77;;;;;;;7.21;100.00;99463.59;1695163;82;21848;-82
2021/12/03 07:06:57;;;;;;;9.98;3.20;;;;;;;7.39;100.00;99451.12;1675505;82;21581;-80
2021/12/03 07:10:03;;;;;;;12.03;2.83;;;;;;;7.54;100.00;99462.09;1707553;82;21323;-78
2021/12/03 07:13:11;;;;;;;14.58;3.92;;;;;;;7.63;100.00;99452.35;1709989;81;21166;-78
2021/12/03 07:16:17;;;;;;;9.65;2.75;;;;;;;7.76;100.00;99454.47;1709262;82;21871;-83
2021/12/03 07:19:23;;;;;;;8.03;2.65;;;;;;;7.86;100.00;99460.56;1708087;82;21197;-83
2021/12/03 07:22:28;;;;;;;12.65;3.00;;;;;;;7.92;99.97;99465.80;1710001;82;21291;-84
2021/12/03 07:25:33;;;;;;;8.60;2.98;;;;;;;7.96;99.15;99463.57;1706336;82;21611;-82
2021/12/03 07:28:41;;;;;;;9.53;3.02;;;;;;;7.97;98.50;99462.02;1709549;82;21659;-83
2021/12/03 07:31:45;;;;;;;10.43;3.52;;;;;;;8.01;98.20;99472.05;1711703;82;21553;-80
2021/12/03 07:34:52;;;;;;;9.00;3.17;;;;;;;8.00;97.75;99471.69;1710387;81;21671;-80
2021/12/03 07:37:57;;;;;;;9.80;3.58;;;;;;;7.99;97.45;99470.84;1769630;79;21151;-82
2021/12/03 07:41:03;;;;;;;7.45;2.95;;;;;;;8.01;96.99;99476.13;1771014;79;21553;-81
2021/12/03 07:44:13;;;;;;;14.15;3.90;;;;;;;8.04;96.61;99474.39;1748972;79;22116;-81
2021/12/03 07:47:26;;;;;;;7.78;3.35;;;;;;;8.08;96.15;99467.55;1767004;79;21256;-80
2021/12/03 07:50:37;;;;;;;5.90;2.45;;;;;;;8.17;95.17;99476.00;1763102;79;21997;-84
2021/12/03 07:53:48;;;;;;;7.70;3.42;;;;;;;8.26;94.63;99480.37;1772553;78;21346;-78
2021/12/03 07:56:58;;;;;;;7.78;3.15;;;;;;;8.32;93.82;99472.81;1728954;79;64046;-80
2021/12/03 08:00:04;;;;;;;10.70;4.80;;;;;;;8.34;93.21;99476.23;1682242;83;21326;-81
2021/12/03 08:03:09;;;;;;;10.40;3.25;;;;;;;8.39;93.26;99467.02;1683750;83;21245;-81
2021/12/03 08:06:15;;;;;;;6.05;2.87;;;;;;;8.48;93.18;99464.23;1689925;82;21280;-81
2021/12/03 08:09:20;;;;;;;10.20;3.08;;;;;;;8.53;92.63;99455.84;1693962;83;21828;-82
2021/12/03 08:12:25;;;;;;;18.55;4.35;;;;;;;8.56;92.07;99447.78;1685248;83;21193;-82
2021/12/03 08:15:36;;;;;;;5.55;3.20;;;;;;;8.65;91.80;99445.31;1647906;85;21241;-82
2021/12/03 08:18:40;;;;;;;8.43;3.77;;;;;;;8.72;91.05;99440.83;1665502;85;21813;-81
2021/12/03 08:21:47;;;;;;;8.63;3.85;;;;;;;8.76;90.67;99438.59;1663770;85;21199;-82
2021/12/03 08:24:52;;;;;;;6.30;3.22;;;;;;;8.84;90.51;99437.13;1663538;85;21279;-82
2021/12/03 08:28:02;;;;;;;9.93;3.55;;;;;;;8.93;90.21;99431.91;1641279;85;21229;-82
2021/12/03 08:31:22;;;;;;;12.15;3.55;;;;;;;8.96;89.60;99432.39;1626004;85;21225;-82
2021/12/03 08:34:30;;;;;;;17.45;3.50;;;;;;;9.00;89.46;99434.23;1571223;88;22194;-82
2021/12/03 08:38:01;;;;;;;8.43;3.47;;;;;;;9.05;89.01;99432.31;1584040;87;21235;-82
2021/12/03 08:41:10;;;;;;;10.25;3.67;;;;;;;9.09;89.03;99424.92;1648098;85;21301;-83
2021/12/03 08:44:14;;;;;;;13.72;4.10;;;;;;;9.13;88.61;99425.41;1657536;85;21241;-83
2021/12/03 08:47:20;;;;;;;8.15;3.85;;;;;;;9.17;88.28;99418.02;1650722;85;21197;-83
2021/12/03 08:50:33;;;;;;;9.98;3.60;;;;;;;9.21;87.75;99404.82;1651228;85;21209;-83
2021/12/03 08:56:58;;;;;;;11.35;3.50;;;;;;;9.23;87.14;99393.22;1652748;85;21190;-83
2021/12/03 09:00:05;;;;;;;9.43;3.67;;;;;;;9.21;86.61;99392.54;1652403;85;21199;-83
2021/12/03 09:03:11;;;;;;;9.03;3.58;;;;;;;9.19;86.16;99394.62;1625025;85;21204;-83
2021/12/03 09:06:19;;;;;;;11.78;3.87;;;;;;;9.17;86.11;99376.22;1659176;84;21214;-82
2021/12/03 09:09:25;;;;;;;7.08;3.27;;;;;;;9.20;86.23;99382.67;1661359;85;21228;-83
2021/12/03 09:12:33;;;;;;;8.73;3.37;;;;;;;9.27;85.81;99384.98;1642197;85;21221;-83
2021/12/03 09:15:51;;;;;;;6.22;3.25;;;;;;;9.34;85.88;99370.89;1641393;85;21897;-82
2021/12/03 09:18:59;;;;;;;12.37;3.45;;;;;;;9.40;85.80;99360.56;1658449;84;21355;-82
2021/12/03 09:22:09;;;;;;;9.58;3.42;;;;;;;9.48;85.50;99358.24;1660127;84;21213;-81
2021/12/03 09:25:19;;;;;;;11.55;3.83;;;;;;;9.54;85.36;99347.91;1596819;88;21359;-81
2021/12/03 09:28:28;;;;;;;9.20;3.92;;;;;;;9.59;85.62;99357.73;1598417;86;21236;-85
2021/12/03 09:31:47;;;;;;;7.75;3.10;;;;;;;9.66;86.19;99349.62;1656711;84;21492;-84
2021/12/03 09:35:05;;;;;;;9.00;3.50;;;;;;;9.77;85.91;99346.89;1661804;84;21423;-82
2021/12/03 09:38:34;;;;;;;9.80;3.43;;;;;;;9.86;85.84;99337.02;1644684;85;21178;-81
2021/12/03 09:41:47;;;;;;;11.57;3.67;;;;;;;9.95;85.69;99333.62;1632667;85;21176;-82
2021/12/03 09:45:09;;;;;;;8.65;3.65;;;;;;;10.01;85.62;99334.20;1650673;84;21282;-82
2021/12/03 09:52:00;;;;;;;9.70;3.52;;;;;;;10.21;85.93;99318.00;1632749;85;21288;-83
2021/12/03 09:55:09;;;;;;;10.43;4.05;;;;;;;10.31;85.94;99313.59;1654197;85;21240;-83
2021/12/03 09:58:39;;;;;;;8.35;3.83;;;;;;;10.42;85.93;99302.09;1657096;84;21194;-82
2021/12/03 10:15:28;;;;;;;13.95;5.22;;;;;;;10.82;85.59;99305.93;1604601;87;22440;-81
2021/12/03 10:17:49;;;;;;;17.17;4.78;;;;;;;10.80;85.84;99298.43;1601308;87;21386;-82
2021/12/03 10:25:05;;;;;;;15.68;4.40;;;;;;;10.83;86.68;99304.88;1612494;87;21205;-81
2021/12/03 10:41:17;;;;;;;12.37;4.47;;;;;;;11.17;87.76;99274.39;1613627;87;21200;-82
2021/12/03 10:47:30;;;;;;;13.15;4.05;;;;;;;11.17;88.02;99261.55;1617180;86;22234;-82
2021/12/03 10:53:48;;;;;;;17.30;5.73;;;;;;;11.17;88.83;99265.66;1617328;86;21335;-82
2021/12/03 10:57:07;;;;;;;16.57;4.83;;;;;;;11.18;89.24;99258.28;1618494;86;21273;-82
2021/12/03 11:06:55;;;;;;;13.78;5.03;;;;;;;11.32;90.21;99223.58;1667643;84;21299;-82
2021/12/03 11:17:01;;;;;;;13.78;5.90;;;;;;;11.31;91.00;99228.21;1654196;85;21196;-82
2021/12/03 11:27:25;;;;;;;12.55;5.25;;;;;;;11.37;90.01;99226.53;1641665;85;21185;-82
2021/12/03 11:36:59;;;;;;;12.55;4.58;;;;;;;11.44;89.63;99234.25;1642403;85;21248;-81
2021/12/03 11:51:02;;;;;;;20.80;4.87;;;;;;;11.47;89.22;99227.80;1647042;85;21181;-81
2021/12/03 12:01:10;;;;;;;13.88;4.62;;;;;;;11.43;89.55;99237.52;1650987;85;21181;-80
2021/12/03 12:11:34;;;;;;;;;;;;;;;11.38;90.03;99226.31;1630449;85;21204;-82
2021/12/03 12:25:52;;;;;;;13.60;4.00;;;;;;;11.33;90.79;99226.09;1578992;85;21199;-82
2021/12/03 12:43:23;;;;;;;14.90;5.17;;;;;;;11.11;92.25;99234.17;1644795;85;21248;-81
2021/12/03 13:13:39;;;;;;;14.35;5.37;;;;;;;10.72;95.45;99222.01;1658739;84;21301;-81
2021/12/03 13:20:21;;;;;;;14.78;4.78;;;;;;;10.60;96.21;99216.29;1659318;85;21288;-81
2021/12/03 13:58:35;;;;;;;13.70;4.85;;;;;;;9.55;100.00;99203.58;1655286;85;21590;-81
2021/12/03 14:22:02;;;;;;;11.83;5.80;;;;;;;9.28;100.00;99220.73;1654501;85;21210;-81
2021/12/03 14:38:14;;;;;;;11.88;5.20;;;;;;;9.03;100.00;99225.17;1632739;87;21391;-82
2021/12/03 14:44:55;;;;;;;18.67;6.10;;;;;;;8.96;100.00;99222.38;1665687;85;21308;-81
2021/12/03 14:48:06;;;;;;;23.80;5.97;;;;;;;8.98;100.00;99222.70;1665878;85;21328;-81
2021/12/03 14:54:48;;;;;;;21.65;6.33;;;;;;;8.98;100.00;99213.16;1645605;87;21226;-81
2021/12/03 14:57:56;;;;;;;15.20;6.05;;;;;;;8.95;100.00;99217.97;1645722;87;21309;-82
2021/12/03 15:01:13;;;;;;;19.12;6.70;;;;;;;8.96;100.00;99225.63;1645868;87;21935;-81
2021/12/03 15:07:52;;;;;;;18.87;6.45;;;;;;;8.94;100.00;99220.38;1673331;85;21899;-82
2021/12/03 15:11:31;;;;;;;19.55;6.80;;;;;;;8.88;100.00;99219.76;1675607;85;21177;-81
2021/12/03 15:21:57;;;;;;;16.57;6.20;;;;;;;8.70;100.00;99222.05;1674800;85;21324;-82
2021/12/03 15:30:48;;;;;;;23.55;7.55;;;;;;;8.54;100.00;99234.55;1665263;86;21241;-81
2021/12/03 15:33:59;;;;;;;19.40;8.90;;;;;;;8.47;100.00;99220.84;1665083;85;21323;-82
2021/12/03 15:37:15;;;;;;;;;;;;;;;8.41;100.00;99222.94;1677468;85;21327;-82
2021/12/03 16:03:37;;;;;;;30.23;12.28;;;;;;;8.33;100.00;99243.46;1675270;85;21209;-82
2021/12/03 16:06:48;;;;;;;28.87;12.28;;;;;;;8.31;100.00;99247.71;1666065;85;21229;-81
2021/12/03 16:26:09;;;;;;;24.35;8.35;;;;;;;8.30;100.00;99231.05;1660311;86;21217;-82
2021/12/03 16:46:21;;;;;;;35.03;14.05;;;;;;;8.17;100.00;99237.66;1659390;86;21368;-81
2021/12/03 16:52:49;;;;;;;56.73;15.25;;;;;;;8.23;100.00;99237.42;1660407;86;21804;-81
2021/12/03 16:56:14;;;;;;;44.98;13.03;;;;;;;8.24;100.00;99234.53;1665425;85;21855;-82
2021/12/03 16:59:02;;;;;;;36.63;14.47;;;;;;;8.29;100.00;99234.81;1665750;86;21372;-82
2021/12/03 17:02:14;;;;;;;36.95;13.70;;;;;;;8.31;100.00;99226.44;1663545;86;21282;-81
2021/12/03 17:05:34;;;;;;;28.90;11.88;;;;;;;8.33;100.00;99232.56;1660112;86;21435;-82
2021/12/03 17:12:07;;;;;;;33.60;14.20;;;;;;;8.36;100.00;99242.58;1543888;93;21476;-81
2021/12/03 17:15:23;;;;;;;24.52;10.65;;;;;;;8.37;100.00;99242.89;1544321;93;21837;-81
2021/12/03 17:25:10;;;;;;;32.55;10.38;;;;;;;8.35;100.00;99251.76;1660502;86;21371;-81
2021/12/03 17:58:15;;;;;;;28.25;9.90;;;;;;;8.85;100.00;99228.34;1654379;86;21887;-81
2021/12/03 18:01:22;;;;;;;28.95;9.60;;;;;;;8.87;100.00;99238.53;1661047;86;21304;-81
2021/12/03 18:04:26;;;;;;;29.72;9.18;;;;;;;8.91;100.00;99236.27;1661023;85;21206;-81
2021/12/03 18:07:56;;;;;;;28.67;8.38;;;;;;;8.96;100.00;99245.56;1660301;85;21328;-82
2021/12/03 18:11:36;;;;;;;27.70;8.23;;;;;;;9.01;100.00;99241.42;1659828;86;21182;-81
2021/12/03 18:43:16;;;;;;;22.67;7.72;;;;;;;9.12;100.00;99251.30;1646981;87;21376;-81
2021/12/03 18:44:42;;;;;;;22.77;6.97;;;;;;;9.28;100.00;99278.88;1644497;87;21364;-81
2021/12/03 18:51:16;;;;;;;28.40;8.53;;;;;;;9.30;100.00;99285.50;1651093;87;21336;-81
2021/12/03 18:57:43;;;;;;;28.40;7.28;;;;;;;9.33;100.00;99288.70;1645644;87;21930;-82
2021/12/03 19:00:52;;;;;;;19.87;6.62;;;;;;;9.35;100.00;99292.06;1646883;87;21740;-82
2021/12/03 19:07:20;;;;;;;27.30;8.30;;;;;;;9.35;100.00;99304.86;1644500;87;21352;-81
2021/12/03 19:10:23;;;;;;;26.02;7.60;;;;;;;9.35;100.00;99302.98;1651838;85;21312;-82
2021/12/03 19:13:33;;;;;;;26.25;9.13;;;;;;;9.34;100.00;99303.18;1652739;86;21811;-82
2021/12/03 19:16:34;;;;;;;31.50;8.83;;;;;;;9.32;100.00;99306.11;1647031;86;21823;-82
2021/12/03 19:19:43;;;;;;;21.40;7.67;;;;;;;9.33;100.00;99305.06;1645865;87;21198;-81
2021/12/03 19:22:48;;;;;;;22.82;7.95;;;;;;;9.36;100.00;99304.70;1652782;87;21853;-81
2021/12/03 19:25:54;;;;;;;34.80;8.50;;;;;;;9.38;100.00;99312.68;1652793;87;21379;-82
2021/12/03 19:28:54;;;;;;;30.62;8.70;;;;;;;9.41;100.00;99314.51;1651637;87;21693;-81
2021/12/03 19:31:49;;;;;;;26.30;8.83;;;;;;;9.43;100.00;99308.84;1652658;87;21335;-81
2021/12/03 19:34:56;;;;;;;27.27;7.87;;;;;;;9.43;100.00;99306.96;1648986;87;21289;-81
2021/12/03 19:38:02;;;;;;;36.48;9.20;;;;;;;9.43;100.00;99311.05;1636953;87;21393;-81
2021/12/03 19:41:28;;;;;;;21.73;7.70;;;;;;;9.41;100.00;99314.51;1653371;87;21303;-81
2021/12/03 19:44:33;;;;;;;35.05;8.68;;;;;;;9.41;100.00;99324.06;1652274;86;21344;-81
2021/12/03 19:47:34;;;;;;;30.08;9.68;;;;;;;9.41;100.00;99317.23;1650479;87;21788;-81
2021/12/03 19:50:43;;;;;;;30.12;8.65;;;;;;;9.41;100.00;99315.00;1646599;87;21321;-81
2021/12/03 19:57:00;;;;;;;25.05;7.75;;;;;;;9.46;100.00;99314.77;1652342;86;21347;-82
2021/12/03 20:00:05;;;;;;;31.87;8.43;;;;;;;9.47;100.00;99317.82;1648981;87;21355;-82
2021/12/03 20:03:09;;;;;;;32.13;7.97;;;;;;;9.45;100.00;99325.34;1637375;86;21186;-81
2021/12/03 20:06:16;;;;;;;27.40;7.83;;;;;;;9.45;100.00;99320.41;1650789;87;21317;-81
2021/12/03 20:09:28;;;;;;;29.55;10.18;;;;;;;9.45;100.00;99323.13;1649167;87;21963;-82
2021/12/03 20:12:34;;;;;;;28.38;7.35;;;;;;;9.43;100.00;99329.31;1647066;86;21189;-82
2021/12/03 20:15:59;;;;;;;27.58;7.12;;;;;;;9.41;100.00;99336.34;1649864;87;21309;-82
2021/12/03 20:19:01;;;;;;;20.90;7.58;;;;;;;9.39;100.00;99340.29;1643391;87;21367;-81
2021/12/03 20:22:07;;;;;;;25.77;8.33;;;;;;;9.36;100.00;99337.45;1638023;87;21273;-81
2021/12/03 20:28:39;;;;;;;36.90;9.10;;;;;;;9.32;100.00;99347.05;1648434;87;21297;-82
2021/12/03 20:31:44;;;;;;;39.55;9.38;;;;;;;9.31;100.00;99353.52;1644114;87;21340;-82
2021/12/03 20:35:04;;;;;;;25.97;8.35;;;;;;;9.32;100.00;99363.42;1658386;86;21415;-81
2021/12/03 20:38:01;;;;;;;29.27;8.08;;;;;;;9.33;100.00;99372.45;1650809;87;21257;-82
2021/12/03 20:41:14;;;;;;;28.70;8.50;;;;;;;9.32;100.00;99382.52;1646070;87;21339;-81
2021/12/03 20:57:30;;;;;;;30.20;9.50;;;;;;;9.38;100.00;99372.20;1663468;86;21289;-81
2021/12/03 21:14:00;;;;;;;37.30;9.13;;;;;;;9.39;100.00;99397.61;1650613;86;21329;-82
2021/12/03 21:17:29;;;;;;;34.43;10.20;;;;;;;9.38;100.00;99403.59;1652166;85;21359;-81
2021/12/03 21:20:25;;;;;;;23.87;8.58;;;;;;;9.42;100.00;99396.71;1666444;86;21885;-81
2021/12/03 21:23:34;;;;;;;37.90;9.88;;;;;;;9.47;100.00;99394.25;1668512;86;21304;-81
2021/12/03 21:26:39;;;;;;;30.08;9.45;;;;;;;9.50;100.00;99390.80;1668308;86;21209;-81
2021/12/03 21:39:39;;;;;;;23.47;7.95;;;;;;;9.55;100.00;99408.81;1681290;85;21323;-82
2021/12/03 21:42:34;;;;;;;31.15;9.23;;;;;;;9.54;100.00;99418.89;1681717;85;21370;-81
2021/12/03 21:45:39;;;;;;;31.07;9.00;;;;;;;9.57;100.00;99414.94;1681243;85;21949;-81
2021/12/03 21:48:45;;;;;;;26.40;8.93;;;;;;;9.57;100.00;99406.75;1664032;85;21718;-81
2021/12/03 21:51:52;;;;;;;33.45;8.80;;;;;;;9.59;100.00;99410.12;1651477;87;21302;-81
2021/12/03 21:54:58;;;;;;;30.90;8.85;;;;;;;9.60;100.00;99420.03;1652749;87;21343;-82
2021/12/03 21:58:04;;;;;;;25.25;8.85;;;;;;;9.61;100.00;99425.81;1651376;87;21877;-82
2021/12/03 22:01:09;;;;;;;34.63;8.43;;;;;;;9.65;100.00;99428.49;1651342;87;21233;-81
2021/12/03 22:04:15;;;;;;;38.58;9.85;;;;;;;9.68;100.00;99431.66;1652556;87;21368;-81
2021/12/03 22:07:19;;;;;;;29.02;8.30;;;;;;;9.71;100.00;99435.91;1653571;87;21804;-82
2021/12/03 22:10:25;;;;;;;23.27;7.47;;;;;;;9.72;100.00;99436.23;1653712;87;21201;-81
2021/12/03 22:13:30;;;;;;;27.50;17.20;;;;;;;9.71;100.00;99437.27;1671218;85;21839;-81
2021/12/03 22:16:38;;;;;;;27.48;17.75;;;;;;;9.33;95.76;99461.98;1645787;86;21847;-81
2021/12/03 22:19:44;;;;;;;30.45;19.25;;;;;;;8.66;88.46;99461.52;1654540;86;21969;-81
2021/12/03 22:22:49;;;;;;;35.20;20.85;;;;;;;7.99;89.20;99488.55;1662707;86;21395;-81
2021/12/03 22:25:55;;;;;;;34.73;22.17;;;;;;;7.51;90.91;99470.61;1662641;86;21605;-81
2021/12/03 22:29:00;;;;;;;32.15;21.82;;;;;;;7.11;91.28;99501.02;1662459;86;21882;-81
2021/12/03 22:32:05;;;;;;;38.08;25.77;;;;;;;6.82;93.21;99494.77;1661542;86;21351;-81
2021/12/03 22:35:11;;;;;;;42.03;26.95;;;;;;;6.61;94.50;99493.95;1661575;86;21328;-81
2021/12/03 22:38:16;;;;;;;47.80;29.70;;;;;;;6.39;94.69;99504.46;1663710;86;21831;-81
2021/12/03 22:41:22;;;;;;;49.25;31.02;;;;;;;6.22;95.23;99523.65;1663828;86;21320;-81
2021/12/03 22:44:27;;;;;;;47.67;31.82;;;;;;;6.05;95.81;99500.53;1657103;86;21668;-81
2021/12/03 22:47:35;;;;;;;53.23;33.40;;;;;;;5.94;96.76;99509.52;1662359;86;21787;-81
2021/12/03 22:53:45;;;;;;;53.25;32.93;;;;;;;5.81;98.06;99522.16;1644704;86;21344;-81
2021/12/03 22:56:51;;;;;;;45.55;29.63;;;;;;;5.72;98.00;99521.79;1645607;87;21210;-81
2021/12/03 22:59:57;;;;;;;56.77;32.78;;;;;;;5.66;98.22;99536.02;1652575;87;21906;-81
2021/12/03 23:03:01;;;;;;;47.05;31.45;;;;;;;5.57;98.40;99534.63;1654616;85;21303;-81
2021/12/03 23:06:06;;;;;;;50.63;28.30;;;;;;;5.47;98.86;99548.82;1665979;86;21871;-82
2021/12/03 23:09:11;;;;;;;33.75;21.37;;;;;;;5.37;98.77;99550.30;1667875;86;21717;-80
2021/12/03 23:12:17;;;;;;;28.47;18.82;;;;;;;5.22;97.08;99556.45;1666593;86;22401;-81
2021/12/03 23:15:25;;;;;;;28.57;16.52;;;;;;;5.04;96.77;99564.16;1659376;85;21245;-81
2021/12/03 23:18:31;;;;;;;28.85;16.30;;;;;;;4.90;97.05;99581.52;1660803;86;21316;-81
2021/12/03 23:21:36;;;;;;;32.78;20.70;;;;;;;4.76;97.17;99578.35;1659506;86;21886;-81
2021/12/03 23:24:42;;;;;;;49.25;31.30;;;;;;;4.61;96.93;99590.25;1660536;86;21210;-81
2021/12/03 23:27:49;;;;;;;59.75;34.90;;;;;;;4.45;96.62;99603.63;1660310;86;21331;-81
2021/12/03 23:30:56;;;;;;;55.20;32.53;;;;;;;4.32;97.33;99596.37;1659983;86;21293;-81
2021/12/03 23:34:03;;;;;;;45.10;27.73;;;;;;;4.23;98.09;99606.27;1649238;86;21288;-81
2021/12/03 23:37:08;;;;;;;37.88;24.80;;;;;;;4.15;98.51;99606.20;1646560;87;21324;-81
2021/12/03 23:40:14;;;;;;;37.20;23.50;;;;;;;4.07;99.25;99615.06;1646555;87;21194;-81
2021/12/03 23:43:19;;;;;;;33.13;19.32;;;;;;;4.02;100.00;99624.65;1645114;87;21325;-82
2021/12/03 23:46:25;;;;;;;30.12;18.80;;;;;;;3.94;100.00;99621.84;1652830;87;21891;-81
2021/12/03 23:49:31;;;;;;;28.60;14.47;;;;;;;3.88;100.00;99627.86;1665513;86;21225;-81
2021/12/03 23:52:36;;;;;;;17.87;10.43;;;;;;;3.81;100.00;99640.64;1668100;86;21269;-81
2021/12/03 23:55:43;;;;;;;14.50;9.30;;;;;;;3.75;100.00;99642.56;1664740;86;21309;-81
2021/12/03 23:58:50;;;;;;;10.98;8.18;;;;;;;3.66;100.00;99635.34;1660306;86;21881;-81
